Time;durP1;ratioP1;P1;durP2;ratioP2;P2;SDS_P1;SDS_P2;PMS_P1;PMS_P2;Temp;Humidity;BMP_temperature;BMP_pressure;BME280_temperature;BME280_humidity;BME280_pressure;Samples;Min_cycle;Max_cycle;Signal;HPM_P1;HPM_P2
2023/12/14 00:02:15;;;;;;;;;;;7.40;99.90;;;;;;5026108;28;20774;-67
2023/12/14 00:04:40;;;;;;;;;;;7.30;99.90;;;;;;5012682;28;19920;-67
2023/12/14 00:07:06;;;;;;;;;;;7.30;99.90;;;;;;5012285;28;19920;-67
2023/12/14 00:09:31;;;;;;;;;;;7.20;99.90;;;;;;5015517;28;20022;-67
2023/12/14 00:11:57;;;;;;;;;;;7.20;99.90;;;;;;5013111;28;19925;-68
2023/12/14 00:14:25;;;;;;;;;;;7.20;99.90;;;;;;5013027;28;20394;-67
2023/12/14 00:16:50;;;;;;;;;;;7.20;99.90;;;;;;5011760;28;19920;-67
2023/12/14 00:19:16;;;;;;;;;;;7.10;99.90;;;;;;5014103;28;20100;-67
2023/12/14 00:21:41;;;;;;;;;;;7.10;99.90;;;;;;5011566;28;20469;-67
2023/12/14 00:24:06;;;;;;;;;;;7.20;99.90;;;;;;5013147;28;19920;-67
2023/12/14 00:26:32;;;;;;;;;;;7.10;99.90;;;;;;5012285;28;19922;-67
2023/12/14 00:28:57;;;;;;;;;;;7.20;99.90;;;;;;5017662;28;19920;-67
2023/12/14 00:31:23;;;;;;;;;;;7.20;99.90;;;;;;5013970;28;19935;-67
2023/12/14 00:33:48;;;;;;;;;;;7.20;99.90;;;;;;5017088;28;20375;-67
2023/12/14 00:36:18;;;;;;;;;;;7.20;99.90;;;;;;5009730;28;19921;-67
2023/12/14 00:38:46;;;;;;;;;;;7.10;99.90;;;;;;5015288;28;19924;-67
2023/12/14 00:41:11;;;;;;;;;;;7.00;99.90;;;;;;5012510;28;19920;-67
2023/12/14 00:43:40;;;;;;;;;;;7.20;99.90;;;;;;5013429;28;20019;-68
2023/12/14 00:46:05;;;;;;;;;;;7.00;99.90;;;;;;5011790;28;19960;-67
2023/12/14 00:48:33;;;;;;;;;;;7.10;99.90;;;;;;5043727;22;19942;-67
2023/12/14 00:51:01;;;;;;;;;;;7.00;99.90;;;;;;5038235;28;19974;-68
2023/12/14 00:53:26;;;;;;;;;;;7.00;99.90;;;;;;5037444;28;19921;-67
2023/12/14 00:55:52;;;;;;;;;;;7.20;99.90;;;;;;5037787;28;19920;-67
2023/12/14 00:58:17;;;;;;;;;;;7.20;99.90;;;;;;5036268;28;19920;-68
2023/12/14 01:00:43;;;;;;;;;;;7.20;99.90;;;;;;5033669;28;19978;-67
2023/12/14 01:03:08;;;;;;;;;;;7.20;99.90;;;;;;5039566;28;19916;-67
2023/12/14 01:05:33;;;;;;;;;;;7.10;99.90;;;;;;5037977;28;19920;-67
2023/12/14 01:07:59;;;;;;;;;;;7.10;99.90;;;;;;5040797;28;19920;-67
2023/12/14 01:10:25;;;;;;;;;;;7.10;99.90;;;;;;5038461;28;20043;-67
2023/12/14 01:12:53;;;;;;;;;;;7.10;99.90;;;;;;5041204;28;19935;-67
2023/12/14 01:15:18;;;;;;;;;;;7.20;99.90;;;;;;5034856;28;19920;-68
2023/12/14 01:17:44;;;;;;;;;;;7.20;99.90;;;;;;5037527;28;19955;-68
2023/12/14 01:20:11;;;;;;;;;;;7.10;99.90;;;;;;5039017;28;20259;-67
2023/12/14 01:22:37;;;;;;;;;;;7.10;99.90;;;;;;5035973;28;20414;-67
2023/12/14 01:25:05;;;;;;;;;;;7.00;99.90;;;;;;5034726;28;19921;-67
2023/12/14 01:27:32;;;;;;;;;;;7.00;99.90;;;;;;5037561;28;20329;-67
2023/12/14 01:29:58;;;;;;;;;;;7.10;99.90;;;;;;5035157;28;19959;-67
2023/12/14 01:32:23;;;;;;;;;;;7.00;99.90;;;;;;5038346;28;19931;-67
2023/12/14 01:34:49;;;;;;;;;;;7.10;99.90;;;;;;5036666;28;19920;-67
2023/12/14 01:37:14;;;;;;;;;;;7.00;99.90;;;;;;5035704;28;20018;-68
2023/12/14 01:39:40;;;;;;;;;;;7.00;99.90;;;;;;5038245;28;19979;-68
2023/12/14 01:42:05;;;;;;;;;;;7.00;99.90;;;;;;5036676;28;19921;-67
2023/12/14 01:44:33;;;;;;;;;;;7.00;99.90;;;;;;5037591;28;19927;-68
2023/12/14 01:46:58;;;;;;;;;;;7.00;99.90;;;;;;5036061;28;19931;-67
2023/12/14 01:49:24;;;;;;;;;;;7.00;99.90;;;;;;5038149;28;20425;-67
2023/12/14 01:51:49;;;;;;;;;;;6.90;99.90;;;;;;5033009;28;19921;-67
2023/12/14 01:54:15;;;;;;;;;;;6.90;99.90;;;;;;5037743;28;19928;-67
2023/12/14 01:56:43;;;;;;;;;;;6.80;99.90;;;;;;5035896;28;19932;-67
2023/12/14 01:59:10;;;;;;;;;;;6.80;99.90;;;;;;5035580;28;20019;-67
2023/12/14 02:01:43;;;;;;;;;;;6.90;99.90;;;;;;5038759;28;19943;-67
2023/12/14 02:04:09;;;;;;;;;;;7.00;99.90;;;;;;5038555;28;19927;-67
2023/12/14 02:06:35;;;;;;;;;;;6.90;99.90;;;;;;5037439;28;19921;-67
2023/12/14 02:09:00;;;;;;;;;;;6.90;99.90;;;;;;5037237;28;19991;-67
2023/12/14 02:11:28;;;;;;;;;;;6.80;99.90;;;;;;5038225;28;19920;-67
2023/12/14 02:13:56;;;;;;;;;;;6.80;99.90;;;;;;5035770;28;19920;-67
2023/12/14 02:16:21;;;;;;;;;;;6.90;99.90;;;;;;5036153;28;19913;-67
2023/12/14 02:18:49;;;;;;;;;;;6.80;99.90;;;;;;5036023;28;19921;-67
2023/12/14 02:21:15;;;;;;;;;;;6.90;99.90;;;;;;5038480;28;20371;-67
2023/12/14 02:23:46;;;;;;;;;;;6.80;99.90;;;;;;5036489;28;19920;-67
2023/12/14 02:26:12;;;;;;;;;;;6.80;99.90;;;;;;5032248;28;20477;-67
2023/12/14 02:28:38;;;;;;;;;;;6.80;99.90;;;;;;5035726;28;19928;-67
2023/12/14 02:31:03;;;;;;;;;;;6.80;99.90;;;;;;5035426;28;22422;-67
2023/12/14 02:33:29;;;;;;;;;;;6.90;99.90;;;;;;5037705;28;20536;-67
2023/12/14 02:35:54;;;;;;;;;;;6.80;99.90;;;;;;5037361;28;20636;-68
2023/12/14 02:38:19;;;;;;;;;;;6.80;99.90;;;;;;5037773;28;19928;-67
2023/12/14 02:40:45;;;;;;;;;;;6.70;99.90;;;;;;5035121;28;19958;-67
2023/12/14 02:43:13;;;;;;;;;;;6.70;99.90;;;;;;5037166;28;19921;-70
2023/12/14 02:45:41;;;;;;;;;;;6.80;99.90;;;;;;5034846;28;19920;-67
2023/12/14 02:48:08;;;;;;;;;;;6.80;99.90;;;;;;5037863;28;19924;-67
2023/12/14 02:50:34;;;;;;;;;;;6.80;99.90;;;;;;5036885;28;19921;-67
2023/12/14 02:52:59;;;;;;;;;;;6.80;99.90;;;;;;5037379;28;20628;-67
2023/12/14 02:55:25;;;;;;;;;;;6.80;99.90;;;;;;5034152;28;19989;-67
2023/12/14 02:57:50;;;;;;;;;;;6.70;99.90;;;;;;5037840;28;20427;-67
2023/12/14 03:00:16;;;;;;;;;;;6.60;99.90;;;;;;5035516;28;20068;-67
2023/12/14 03:02:43;;;;;;;;;;;6.60;99.90;;;;;;5037290;28;20641;-67
2023/12/14 03:05:09;;;;;;;;;;;6.60;99.90;;;;;;5037454;28;19956;-67
2023/12/14 03:07:34;;;;;;;;;;;6.60;99.90;;;;;;5036677;28;20820;-67
2023/12/14 03:10:00;;;;;;;;;;;6.60;99.90;;;;;;5036575;28;19963;-67
2023/12/14 03:12:28;;;;;;;;;;;6.60;99.90;;;;;;5038684;28;19942;-67
2023/12/14 03:14:53;;;;;;;;;;;6.70;99.90;;;;;;5034993;28;20563;-67
2023/12/14 03:17:19;;;;;;;;;;;6.60;99.90;;;;;;5038959;28;19927;-67
2023/12/14 03:19:44;;;;;;;;;;;6.70;99.90;;;;;;5038771;28;20072;-67
2023/12/14 03:22:12;;;;;;;;;;;6.60;99.90;;;;;;5039791;28;19920;-67
2023/12/14 03:24:38;;;;;;;;;;;6.60;99.90;;;;;;5039944;28;19920;-67
2023/12/14 03:27:06;;;;;;;;;;;6.60;99.90;;;;;;5038792;28;19920;-67
2023/12/14 03:29:34;;;;;;;;;;;6.60;99.90;;;;;;5039791;28;20007;-67
2023/12/14 03:32:00;;;;;;;;;;;6.60;99.90;;;;;;5037735;28;20361;-67
2023/12/14 03:34:25;;;;;;;;;;;6.50;99.90;;;;;;5042218;28;19982;-68
2023/12/14 03:36:51;;;;;;;;;;;6.60;99.90;;;;;;5041240;28;19943;-67
2023/12/14 03:39:16;;;;;;;;;;;6.60;99.90;;;;;;5040302;28;19978;-67
2023/12/14 03:41:45;;;;;;;;;;;6.60;99.90;;;;;;5040781;28;19970;-68
2023/12/14 03:44:12;;;;;;;;;;;6.40;99.90;;;;;;5040400;28;20566;-67
2023/12/14 03:46:40;;;;;;;;;;;6.50;99.90;;;;;;5038288;28;19920;-67
2023/12/14 03:49:05;;;;;;;;;;;6.60;99.90;;;;;;5039207;28;19925;-67
2023/12/14 03:51:31;;;;;;;;;;;6.60;99.90;;;;;;5036872;28;20100;-67
2023/12/14 03:53:56;;;;;;;;;;;6.60;99.90;;;;;;5040953;28;19925;-67
2023/12/14 03:56:22;;;;;;;;;;;6.50;99.90;;;;;;5041104;28;20017;-67
2023/12/14 03:58:47;;;;;;;;;;;6.50;99.90;;;;;;5040015;28;19921;-67
2023/12/14 04:01:20;;;;;;;;;;;6.50;99.90;;;;;;5038423;28;19963;-68
2023/12/14 04:03:46;;;;;;;;;;;6.50;99.90;;;;;;5040285;28;19948;-67
2023/12/14 04:06:15;;;;;;;;;;;6.50;99.90;;;;;;5038861;28;19921;-67
2023/12/14 04:08:41;;;;;;;;;;;6.50;99.90;;;;;;5043274;28;20509;-67
2023/12/14 04:11:06;;;;;;;;;;;6.40;99.90;;;;;;5038166;28;19938;-67
2023/12/14 04:13:32;;;;;;;;;;;6.40;99.90;;;;;;5040971;28;20501;-67
2023/12/14 04:15:58;;;;;;;;;;;6.40;99.90;;;;;;5039135;28;19998;-67
2023/12/14 04:18:23;;;;;;;;;;;6.40;99.90;;;;;;5040739;28;19916;-67
2023/12/14 04:20:51;;;;;;;;;;;6.40;99.90;;;;;;5039785;28;20029;-67
2023/12/14 04:23:16;;;;;;;;;;;6.40;99.90;;;;;;5039326;28;20012;-67
2023/12/14 04:25:42;;;;;;;;;;;6.40;99.90;;;;;;5037461;28;20059;-67
2023/12/14 04:28:07;;;;;;;;;;;6.30;99.90;;;;;;5039963;28;19946;-67
2023/12/14 04:30:33;;;;;;;;;;;6.40;99.90;;;;;;5038954;28;19921;-67
2023/12/14 04:33:00;;;;;;;;;;;6.40;99.90;;;;;;5040256;28;19931;-67
2023/12/14 04:35:26;;;;;;;;;;;6.50;99.90;;;;;;5039995;28;20006;-67
2023/12/14 04:37:52;;;;;;;;;;;6.50;99.90;;;;;;5038164;28;20428;-68
2023/12/14 04:40:17;;;;;;;;;;;6.50;99.90;;;;;;5037671;28;19927;-67
2023/12/14 04:42:43;;;;;;;;;;;6.50;99.90;;;;;;5037399;28;19946;-67
2023/12/14 04:45:12;;;;;;;;;;;6.60;99.90;;;;;;5038243;28;20017;-67
2023/12/14 04:47:38;;;;;;;;;;;6.50;99.90;;;;;;5040237;28;19921;-67
2023/12/14 04:50:04;;;;;;;;;;;6.70;99.90;;;;;;5038937;28;19927;-67
2023/12/14 04:52:29;;;;;;;;;;;6.60;99.90;;;;;;5040603;28;19975;-68
2023/12/14 04:54:57;;;;;;;;;;;6.40;99.90;;;;;;5037752;28;20674;-67
2023/12/14 04:57:22;;;;;;;;;;;6.50;99.90;;;;;;5039011;28;20953;-67
2023/12/14 04:59:48;;;;;;;;;;;6.60;99.90;;;;;;5036868;28;19931;-67
2023/12/14 05:02:13;;;;;;;;;;;6.50;99.90;;;;;;5037183;28;19943;-67
2023/12/14 05:04:39;;;;;;;;;;;6.60;99.90;;;;;;5038832;28;19920;-67
2023/12/14 05:07:06;;;;;;;;;;;6.50;99.90;;;;;;5038138;28;19920;-67
2023/12/14 05:09:32;;;;;;;;;;;6.50;99.90;;;;;;5040723;28;19963;-67
2023/12/14 05:11:57;;;;;;;;;;;6.50;99.90;;;;;;5037424;28;20012;-68
2023/12/14 05:14:23;;;;;;;;;;;6.40;99.90;;;;;;5037031;28;20373;-67
2023/12/14 05:16:49;;;;;;;;;;;6.40;99.90;;;;;;5040576;28;20306;-67
2023/12/14 05:19:14;;;;;;;;;;;6.40;99.90;;;;;;5040587;28;19952;-67
2023/12/14 05:21:42;;;;;;;;;;;6.50;99.90;;;;;;5052403;28;19921;-67
2023/12/14 05:24:08;;;;;;;;;;;6.50;99.90;;;;;;5038680;28;19942;-67
2023/12/14 05:26:36;;;;;;;;;;;6.50;99.90;;;;;;5037764;28;20003;-67
2023/12/14 05:29:03;;;;;;;;;;;6.60;99.90;;;;;;5039522;28;19920;-67
2023/12/14 05:31:29;;;;;;;;;;;6.60;99.90;;;;;;5036174;28;19951;-67
2023/12/14 05:33:54;;;;;;;;;;;6.60;99.90;;;;;;5038923;28;19924;-68
2023/12/14 05:36:20;;;;;;;;;;;6.70;99.90;;;;;;5037273;28;19920;-67
2023/12/14 05:38:45;;;;;;;;;;;6.60;99.90;;;;;;5039277;28;20884;-67
2023/12/14 05:41:13;;;;;;;;;;;6.60;99.90;;;;;;5035254;28;19916;-67
2023/12/14 05:43:38;;;;;;;;;;;6.50;99.90;;;;;;5037706;28;20104;-67
2023/12/14 05:46:04;;;;;;;;;;;6.50;99.90;;;;;;5036712;28;20690;-67
2023/12/14 05:48:29;;;;;;;;;;;6.50;99.90;;;;;;5038630;28;19935;-68
2023/12/14 05:50:56;;;;;;;;;;;6.50;99.90;;;;;;5038688;28;19921;-68
2023/12/14 05:53:21;;;;;;;;;;;6.60;99.90;;;;;;5038519;28;19924;-67
2023/12/14 05:55:47;;;;;;;;;;;6.60;99.90;;;;;;5036387;28;19913;-67
2023/12/14 05:58:12;;;;;;;;;;;6.50;99.90;;;;;;5040208;28;20584;-67
2023/12/14 06:00:39;;;;;;;;;;;6.40;99.90;;;;;;5036687;28;19924;-67
2023/12/14 06:03:05;;;;;;;;;;;6.40;99.90;;;;;;5038692;28;19928;-67
2023/12/14 06:05:31;;;;;;;;;;;6.40;99.90;;;;;;5036621;28;19921;-67
2023/12/14 06:07:59;;;;;;;;;;;6.40;99.90;;;;;;5040697;28;20099;-67
2023/12/14 06:10:24;;;;;;;;;;;6.50;99.90;;;;;;5037496;28;19928;-67
2023/12/14 06:12:49;;;;;;;;;;;6.50;99.90;;;;;;5039021;28;19988;-67
2023/12/14 06:15:18;;;;;;;;;;;6.50;99.90;;;;;;5036296;28;19928;-67
2023/12/14 06:17:43;;;;;;;;;;;6.50;99.90;;;;;;5035908;28;19920;-67
2023/12/14 06:20:11;;;;;;;;;;;6.60;99.90;;;;;;5035228;28;19942;-67
2023/12/14 06:22:39;;;;;;;;;;;6.50;99.90;;;;;;5037265;28;20353;-67
2023/12/14 06:25:04;;;;;;;;;;;6.50;99.90;;;;;;5034523;28;19920;-67
2023/12/14 06:27:30;;;;;;;;;;;6.50;99.90;;;;;;5038834;28;20326;-67
2023/12/14 06:29:56;;;;;;;;;;;6.60;99.90;;;;;;5034550;28;19921;-67
2023/12/14 06:32:21;;;;;;;;;;;6.70;99.90;;;;;;5036991;28;19924;-66
2023/12/14 06:34:47;;;;;;;;;;;6.50;99.90;;;;;;5039547;28;19920;-67
2023/12/14 06:37:12;;;;;;;;;;;6.60;99.90;;;;;;5035774;28;19942;-67
2023/12/14 06:39:38;;;;;;;;;;;6.60;99.90;;;;;;5036081;28;19940;-68
2023/12/14 06:42:06;;;;;;;;;;;6.60;99.90;;;;;;5034746;28;20054;-67
2023/12/14 06:44:32;;;;;;;;;;;6.50;99.90;;;;;;5036261;28;20007;-67
2023/12/14 06:46:58;;;;;;;;;;;6.50;99.90;;;;;;5047209;22;20941;-67
2023/12/14 06:49:23;;;;;;;;;;;6.50;99.90;;;;;;5062781;28;19942;-67
2023/12/14 06:51:49;;;;;;;;;;;6.40;99.90;;;;;;5053735;28;19917;-67
2023/12/14 06:54:17;;;;;;;;;;;6.50;99.90;;;;;;5046290;28;20178;-67
2023/12/14 06:56:42;;;;;;;;;;;6.50;99.90;;;;;;5040070;28;20215;-67
2023/12/14 06:59:08;;;;;;;;;;;6.50;99.90;;;;;;5034956;28;19921;-67
2023/12/14 07:01:33;;;;;;;;;;;6.40;99.90;;;;;;5036905;28;19924;-67
2023/12/14 07:03:59;;;;;;;;;;;6.40;99.90;;;;;;5037154;28;19997;-67
2023/12/14 07:06:24;;;;;;;;;;;6.40;99.90;;;;;;5033977;28;19982;-67
2023/12/14 07:08:52;;;;;;;;;;;6.50;99.90;;;;;;5039946;28;20039;-67
2023/12/14 07:11:18;;;;;;;;;;;6.50;99.90;;;;;;5043753;28;19951;-67
2023/12/14 07:13:44;;;;;;;;;;;6.50;99.90;;;;;;5040477;28;20574;-68
2023/12/14 07:16:12;;;;;;;;;;;6.50;99.90;;;;;;5037332;28;20089;-67
2023/12/14 07:18:40;;;;;;;;;;;6.50;99.90;;;;;;5036159;28;19924;-67
2023/12/14 07:21:05;;;;;;;;;;;6.50;99.90;;;;;;5037473;28;19921;-67
2023/12/14 07:23:31;;;;;;;;;;;6.40;99.90;;;;;;5037561;28;19959;-67
2023/12/14 07:25:56;;;;;;;;;;;6.50;99.90;;;;;;5039613;28;19920;-67
2023/12/14 07:28:22;;;;;;;;;;;6.40;99.90;;;;;;5037286;28;19947;-67
2023/12/14 07:30:50;;;;;;;;;;;6.40;99.90;;;;;;5038584;28;19989;-67
2023/12/14 07:33:16;;;;;;;;;;;6.40;99.90;;;;;;5038796;28;19925;-67
2023/12/14 07:35:41;;;;;;;;;;;6.40;99.90;;;;;;5038230;28;20413;-67
2023/12/14 07:38:07;;;;;;;;;;;6.40;99.90;;;;;;5037328;28;19916;-67
2023/12/14 07:40:32;;;;;;;;;;;6.50;99.90;;;;;;5040753;28;19939;-67
2023/12/14 07:42:58;;;;;;;;;;;6.40;99.90;;;;;;5036456;28;19917;-67
2023/12/14 07:45:23;;;;;;;;;;;6.50;99.90;;;;;;5042024;28;19952;-67
2023/12/14 07:47:49;;;;;;;;;;;6.40;99.90;;;;;;5037905;28;19928;-67
2023/12/14 07:50:14;;;;;;;;;;;6.40;99.90;;;;;;5039588;28;20035;-67
2023/12/14 07:52:40;;;;;;;;;;;6.40;99.90;;;;;;5036896;28;19931;-67
2023/12/14 07:55:08;;;;;;;;;;;6.40;99.90;;;;;;5039249;28;19924;-67
2023/12/14 07:57:34;;;;;;;;;;;6.50;99.90;;;;;;5037613;28;20341;-67
2023/12/14 07:59:59;;;;;;;;;;;6.50;99.90;;;;;;5037898;28;19924;-67
2023/12/14 08:02:25;;;;;;;;;;;6.50;99.90;;;;;;5029612;28;19975;-67
2023/12/14 08:04:50;;;;;;;;;;;6.40;99.90;;;;;;5038914;28;19978;-67
2023/12/14 08:07:18;;;;;;;;;;;6.40;99.90;;;;;;5037517;28;20338;-67
2023/12/14 08:09:44;;;;;;;;;;;6.40;99.90;;;;;;5037964;28;20414;-67
2023/12/14 08:12:12;;;;;;;;;;;6.40;99.90;;;;;;5036739;28;19921;-67
2023/12/14 08:14:41;;;;;;;;;;;6.40;99.90;;;;;;5038956;28;20359;-67
2023/12/14 08:17:06;;;;;;;;;;;6.40;99.90;;;;;;5037139;28;19932;-67
2023/12/14 08:19:32;;;;;;;;;;;6.40;99.90;;;;;;5037718;28;19924;-67
2023/12/14 08:21:57;;;;;;;;;;;6.40;99.90;;;;;;5036480;28;20152;-67
2023/12/14 08:24:22;;;;;;;;;;;6.40;99.90;;;;;;5039311;28;20509;-67
2023/12/14 08:26:48;;;;;;;;;;;6.30;99.90;;;;;;5038641;28;19928;-67
2023/12/14 08:29:16;;;;;;;;;;;6.30;99.90;;;;;;5039473;28;20015;-67
2023/12/14 08:31:41;;;;;;;;;;;6.30;99.90;;;;;;5036935;28;20651;-67
2023/12/14 08:34:07;;;;;;;;;;;6.30;99.90;;;;;;5038542;28;19928;-67
2023/12/14 08:36:32;;;;;;;;;;;6.40;99.90;;;;;;5035489;28;20260;-67
2023/12/14 08:38:58;;;;;;;;;;;6.30;99.90;;;;;;5036893;28;20019;-67
2023/12/14 08:41:26;;;;;;;;;;;6.30;99.90;;;;;;5036221;28;20050;-67
2023/12/14 08:43:51;;;;;;;;;;;6.40;99.90;;;;;;5037469;28;19921;-67
2023/12/14 08:46:17;;;;;;;;;;;6.30;99.90;;;;;;5037166;28;19925;-67
2023/12/14 08:48:42;;;;;;;;;;;6.40;99.90;;;;;;5036480;28;19924;-67
2023/12/14 08:51:08;;;;;;;;;;;6.40;99.90;;;;;;5038715;28;19923;-67
2023/12/14 08:53:33;;;;;;;;;;;6.40;99.90;;;;;;5036621;28;20313;-67
2023/12/14 08:55:59;;;;;;;;;;;6.50;99.90;;;;;;5036925;28;20399;-67
2023/12/14 08:58:24;;;;;;;;;;;6.50;99.90;;;;;;5036762;28;19920;-67
2023/12/14 09:00:53;;;;;;;;;;;6.40;99.90;;;;;;5038547;28;19924;-67
2023/12/14 09:03:19;;;;;;;;;;;6.50;99.90;;;;;;5035870;28;19920;-67
2023/12/14 09:05:47;;;;;;;;;;;6.50;99.90;;;;;;5037180;28;19921;-67
2023/12/14 09:08:12;;;;;;;;;;;6.40;99.90;;;;;;5035217;28;19931;-67
2023/12/14 09:10:38;;;;;;;;;;;6.40;99.90;;;;;;5037344;28;19920;-67
2023/12/14 09:13:08;;;;;;;;;;;6.30;99.90;;;;;;5034107;28;19925;-67
2023/12/14 09:15:34;;;;;;;;;;;6.30;99.90;;;;;;5036781;28;19928;-67
2023/12/14 09:18:02;;;;;;;;;;;6.40;99.90;;;;;;5034427;28;19920;-67
2023/12/14 09:20:28;;;;;;;;;;;6.40;99.90;;;;;;5037367;28;19960;-67
2023/12/14 09:22:53;;;;;;;;;;;6.40;99.90;;;;;;5033636;28;19947;-67
2023/12/14 09:25:19;;;;;;;;;;;6.40;99.90;;;;;;5035729;28;19916;-67
2023/12/14 09:27:44;;;;;;;;;;;6.40;99.90;;;;;;5035236;28;20377;-68
2023/12/14 09:30:10;;;;;;;;;;;6.50;99.90;;;;;;5035939;28;19924;-67
2023/12/14 09:32:36;;;;;;;;;;;6.50;99.90;;;;;;5038662;28;19963;-67
2023/12/14 09:35:03;;;;;;;;;;;6.40;99.90;;;;;;5039342;28;20186;-67
2023/12/14 09:37:29;;;;;;;;;;;6.40;99.90;;;;;;5043000;28;20028;-67
2023/12/14 09:39:54;;;;;;;;;;;6.40;99.90;;;;;;5034591;28;19924;-68
2023/12/14 09:42:20;;;;;;;;;;;6.50;99.90;;;;;;5035887;28;19920;-67
2023/12/14 09:44:47;;;;;;;;;;;6.50;99.90;;;;;;5035864;28;20287;-67
2023/12/14 09:47:13;;;;;;;;;;;6.50;99.90;;;;;;5034807;28;19924;-67
2023/12/14 09:49:40;;;;;;;;;;;6.50;99.90;;;;;;5036429;28;19965;-67
2023/12/14 09:52:08;;;;;;;;;;;6.40;99.90;;;;;;5034447;28;19916;-67
2023/12/14 09:54:36;;;;;;;;;;;6.40;99.90;;;;;;5036690;28;19971;-67
2023/12/14 09:57:01;;;;;;;;;;;6.40;99.90;;;;;;5033847;28;19927;-67
2023/12/14 09:59:29;;;;;;;;;;;6.40;99.90;;;;;;5037411;28;19912;-67
2023/12/14 10:02:12;;;;;;;;;;;6.40;99.90;;;;;;5035226;28;19920;-68
2023/12/14 10:04:38;;;;;;;;;;;6.30;99.90;;;;;;5036682;28;19912;-67
2023/12/14 10:07:06;;;;;;;;;;;6.30;99.90;;;;;;5034543;28;19921;-67
2023/12/14 10:09:32;;;;;;;;;;;6.40;99.90;;;;;;5036137;28;19921;-67
2023/12/14 10:12:02;;;;;;;;;;;6.50;99.90;;;;;;5033387;28;20075;-68
2023/12/14 10:14:30;;;;;;;;;;;6.50;99.90;;;;;;5035570;28;19920;-67
2023/12/14 10:16:58;;;;;;;;;;;6.60;99.90;;;;;;5037675;28;19950;-68
2023/12/14 10:19:24;;;;;;;;;;;6.50;99.90;;;;;;5035646;28;20083;-67
2023/12/14 10:21:58;;;;;;;;;;;6.60;99.90;;;;;;5036678;28;20434;-67
2023/12/14 10:24:26;;;;;;;;;;;6.60;99.90;;;;;;5036353;28;19925;-67
2023/12/14 10:26:52;;;;;;;;;;;6.60;99.90;;;;;;5040235;28;20306;-67
2023/12/14 10:29:17;;;;;;;;;;;6.60;99.90;;;;;;5038396;28;19916;-67
2023/12/14 10:31:43;;;;;;;;;;;6.60;99.90;;;;;;5038436;28;20398;-67
2023/12/14 10:34:08;;;;;;;;;;;6.60;99.90;;;;;;5040041;28;19924;-67
2023/12/14 10:36:34;;;;;;;;;;;6.50;99.90;;;;;;5038988;28;19938;-67
2023/12/14 10:39:00;;;;;;;;;;;6.50;99.90;;;;;;5037857;28;19920;-67
2023/12/14 10:41:27;;;;;;;;;;;6.60;99.90;;;;;;5039230;28;19920;-67
2023/12/14 10:44:00;;;;;;;;;;;6.60;99.90;;;;;;5038051;28;19916;-67
2023/12/14 10:46:26;;;;;;;;;;;6.70;99.90;;;;;;5036371;28;20082;-69
2023/12/14 10:48:53;;;;;;;;;;;6.70;99.90;;;;;;5037964;28;19947;-67
2023/12/14 10:51:20;;;;;;;;;;;6.70;99.90;;;;;;5037773;28;19920;-67
2023/12/14 10:53:51;;;;;;;;;;;6.50;99.90;;;;;;5038131;28;19928;-67
2023/12/14 10:56:18;;;;;;;;;;;6.60;99.90;;;;;;5037589;28;19951;-67
2023/12/14 10:58:47;;;;;;;;;;;6.60;99.90;;;;;;5037193;28;20050;-67
2023/12/14 11:01:13;;;;;;;;;;;6.70;99.90;;;;;;5039132;28;20012;-67
2023/12/14 11:03:40;;;;;;;;;;;6.70;99.90;;;;;;5039607;28;19920;-67
2023/12/14 11:06:19;;;;;;;;;;;6.70;99.90;;;;;;5039469;28;19928;-67
2023/12/14 11:08:47;;;;;;;;;;;6.70;99.90;;;;;;5037950;28;20523;-67
2023/12/14 11:11:20;;;;;;;;;;;6.70;99.90;;;;;;5037839;28;19970;-67
2023/12/14 11:13:49;;;;;;;;;;;6.60;99.90;;;;;;5038349;28;19925;-67
2023/12/14 11:16:15;;;;;;;;;;;6.40;99.90;;;;;;5038889;28;19928;-68
2023/12/14 11:18:40;;;;;;;;;;;6.50;99.90;;;;;;5039112;28;19920;-67
2023/12/14 11:21:06;;;;;;;;;;;6.50;99.90;;;;;;5039503;28;19939;-67
2023/12/14 11:23:38;;;;;;;;;;;6.50;99.90;;;;;;5036420;28;19920;-67
2023/12/14 11:26:06;;;;;;;;;;;6.60;99.90;;;;;;5038290;28;20465;-68
2023/12/14 11:28:35;;;;;;;;;;;6.60;99.90;;;;;;5038699;28;20563;-67
2023/12/14 11:31:02;;;;;;;;;;;6.60;99.90;;;;;;5037601;28;20602;-67
2023/12/14 11:33:30;;;;;;;;;;;6.70;99.90;;;;;;5037287;28;19924;-67
2023/12/14 11:35:56;;;;;;;;;;;6.60;99.90;;;;;;5037163;28;19963;-67
2023/12/14 11:38:27;;;;;;;;;;;6.60;99.90;;;;;;5036949;28;20032;-67
2023/12/14 11:40:57;;;;;;;;;;;6.50;99.90;;;;;;5039642;28;20014;-67
2023/12/14 11:43:24;;;;;;;;;;;6.50;99.90;;;;;;5041172;28;19921;-67
2023/12/14 11:45:50;;;;;;;;;;;6.60;99.90;;;;;;5039791;28;20383;-67
2023/12/14 11:48:16;;;;;;;;;;;6.50;99.90;;;;;;5039221;28;20074;-67
2023/12/14 11:50:42;;;;;;;;;;;6.60;99.90;;;;;;5039353;28;20409;-67
2023/12/14 11:53:08;;;;;;;;;;;6.60;99.90;;;;;;5038221;28;20554;-67
2023/12/14 11:55:34;;;;;;;;;;;6.60;99.90;;;;;;5037895;28;19964;-67
2023/12/14 11:58:00;;;;;;;;;;;6.60;99.90;;;;;;5037759;28;19920;-67
2023/12/14 12:00:26;;;;;;;;;;;6.60;99.90;;;;;;5030263;28;19920;-67
2023/12/14 12:02:52;;;;;;;;;;;6.70;99.90;;;;;;5036696;28;19985;-67
2023/12/14 12:05:21;;;;;;;;;;;6.70;99.90;;;;;;5039014;28;19920;-67
2023/12/14 12:07:48;;;;;;;;;;;6.60;99.90;;;;;;5038642;28;20410;-67
2023/12/14 12:10:14;;;;;;;;;;;6.50;99.90;;;;;;5040147;28;20339;-67
2023/12/14 12:12:41;;;;;;;;;;;6.60;99.90;;;;;;5035008;28;19925;-67
2023/12/14 12:15:07;;;;;;;;;;;6.60;99.90;;;;;;5037390;28;19970;-67
2023/12/14 12:17:37;;;;;;;;;;;6.60;99.90;;;;;;5035344;28;20014;-68
2023/12/14 12:20:04;;;;;;;;;;;6.50;99.90;;;;;;5037828;28;19923;-67
2023/12/14 12:22:32;;;;;;;;;;;6.60;99.90;;;;;;5035737;28;19920;-67
2023/12/14 12:25:00;;;;;;;;;;;6.60;99.90;;;;;;5036593;28;20034;-67
2023/12/14 12:27:26;;;;;;;;;;;6.60;99.90;;;;;;5035555;28;20704;-67
2023/12/14 12:29:54;;;;;;;;;;;6.60;99.90;;;;;;5037101;28;19951;-67
2023/12/14 12:32:20;;;;;;;;;;;6.60;99.90;;;;;;5036198;28;19921;-67
2023/12/14 12:34:45;;;;;;;;;;;6.60;99.90;;;;;;5038045;28;20717;-67
2023/12/14 12:37:13;;;;;;;;;;;6.60;99.90;;;;;;5038271;28;19930;-67
2023/12/14 12:39:41;;;;;;;;;;;6.50;99.90;;;;;;5037482;28;19955;-67
2023/12/14 12:42:07;;;;;;;;;;;6.50;99.90;;;;;;5035750;28;20401;-68
2023/12/14 12:44:32;;;;;;;;;;;6.60;99.90;;;;;;5037969;28;19921;-67
2023/12/14 12:46:58;;;;;;;;;;;6.60;99.90;;;;;;5045758;22;20115;-67
2023/12/14 12:49:24;;;;;;;;;;;6.60;99.90;;;;;;5049689;28;19921;-67
2023/12/14 12:51:49;;;;;;;;;;;6.60;99.90;;;;;;5047469;28;19916;-67
2023/12/14 12:54:17;;;;;;;;;;;6.60;99.90;;;;;;5050134;28;20479;-68
2023/12/14 12:56:43;;;;;;;;;;;6.60;99.90;;;;;;5048961;28;20375;-67
2023/12/14 12:59:11;;;;;;;;;;;6.60;99.90;;;;;;5051366;28;19920;-67
2023/12/14 13:01:39;;;;;;;;;;;6.50;99.90;;;;;;5049437;28;19920;-68
2023/12/14 13:04:17;;;;;;;;;;;6.50;99.90;;;;;;5050316;28;19920;-67
2023/12/14 13:06:42;;;;;;;;;;;6.50;99.90;;;;;;5048347;28;20055;-67
2023/12/14 13:09:08;;;;;;;;;;;6.60;99.90;;;;;;5050770;28;19920;-67
2023/12/14 13:11:33;;;;;;;;;;;6.60;99.90;;;;;;5047348;28;21658;-67
2023/12/14 13:14:01;;;;;;;;;;;6.70;99.90;;;;;;5055762;28;20302;-67
2023/12/14 13:16:26;;;;;;;;;;;6.70;99.90;;;;;;5048198;28;19959;-67
2023/12/14 13:18:54;;;;;;;;;;;6.70;99.90;;;;;;5049841;28;19913;-67
2023/12/14 13:21:22;;;;;;;;;;;6.70;99.90;;;;;;5049030;28;19964;-67
2023/12/14 13:23:47;;;;;;;;;;;6.70;99.90;;;;;;5050680;28;19926;-67
2023/12/14 13:26:12;;;;;;;;;;;6.70;99.90;;;;;;5051256;28;20410;-67
2023/12/14 13:28:38;;;;;;;;;;;6.70;99.90;;;;;;5048445;28;19955;-67
2023/12/14 13:31:03;;;;;;;;;;;6.70;99.90;;;;;;5050162;28;20314;-67
2023/12/14 13:33:29;;;;;;;;;;;6.70;99.90;;;;;;5048130;28;19924;-67
2023/12/14 13:35:57;;;;;;;;;;;6.70;99.90;;;;;;5050308;28;19955;-67
2023/12/14 13:38:22;;;;;;;;;;;6.70;99.90;;;;;;5047611;28;19951;-67
2023/12/14 13:40:47;;;;;;;;;;;6.70;99.90;;;;;;5049904;28;20374;-67
2023/12/14 13:43:14;;;;;;;;;;;6.70;99.90;;;;;;5048858;28;19921;-67
2023/12/14 13:45:41;;;;;;;;;;;6.70;99.90;;;;;;5051332;28;19912;-67
2023/12/14 13:48:07;;;;;;;;;;;6.70;99.90;;;;;;5046198;28;19924;-67
2023/12/14 13:50:34;;;;;;;;;;;6.70;99.90;;;;;;5049068;28;20014;-67
2023/12/14 13:52:59;;;;;;;;;;;6.70;99.90;;;;;;5046699;28;19924;-67
2023/12/14 13:55:25;;;;;;;;;;;6.70;99.90;;;;;;5049728;28;20967;-67
2023/12/14 13:57:51;;;;;;;;;;;6.70;99.90;;;;;;5048137;28;20467;-67
2023/12/14 14:00:19;;;;;;;;;;;6.70;99.90;;;;;;5047627;28;19919;-67
2023/12/14 14:02:44;;;;;;;;;;;6.80;99.90;;;;;;5047586;28;19927;-67
2023/12/14 14:05:10;;;;;;;;;;;6.80;99.90;;;;;;5049588;28;19917;-67
2023/12/14 14:07:36;;;;;;;;;;;6.80;99.90;;;;;;5047263;28;20234;-67
2023/12/14 14:10:01;;;;;;;;;;;6.80;99.90;;;;;;5048528;28;19920;-67
2023/12/14 14:12:26;;;;;;;;;;;6.90;99.90;;;;;;5047795;28;19920;-67
2023/12/14 14:14:54;;;;;;;;;;;6.90;99.90;;;;;;5048830;28;21542;-67
2023/12/14 14:17:20;;;;;;;;;;;6.90;99.90;;;;;;5047708;28;20155;-67
2023/12/14 14:19:45;;;;;;;;;;;7.00;99.90;;;;;;5050305;28;19927;-67
2023/12/14 14:22:13;;;;;;;;;;;7.00;99.90;;;;;;5047944;28;20423;-67
2023/12/14 14:24:41;;;;;;;;;;;6.90;99.90;;;;;;5048101;28;19921;-67
2023/12/14 14:27:06;;;;;;;;;;;6.90;99.90;;;;;;5047082;28;20593;-67